createdAt,value
2023-02-01T00:00:16.924Z,23.15
2023-02-01T00:03:20.225Z,25.02
2023-02-01T00:06:23.341Z,29.25
2023-02-01T00:09:26.281Z,21.20
2023-02-01T00:12:29.127Z,35.77
2023-02-01T00:15:32.110Z,46.00
2023-02-01T00:18:35.358Z,43.28
2023-02-01T00:21:38.243Z,38.90
2023-02-01T00:24:41.448Z,45.33
2023-02-01T00:27:44.267Z,53.70
2023-02-01T00:30:47.199Z,46.45
2023-02-01T00:33:50.357Z,45.30
2023-02-01T00:36:53.155Z,37.90
2023-02-01T00:39:56.988Z,33.20
2023-02-01T00:42:59.939Z,26.13
2023-02-01T00:46:03.105Z,27.52
2023-02-01T00:49:06.686Z,28.50
2023-02-01T00:52:09.518Z,24.88
2023-02-01T00:55:12.658Z,19.42
2023-02-01T00:58:16.204Z,16.97
2023-02-01T01:01:22.566Z,13.27
2023-02-01T01:04:25.524Z,22.55
2023-02-01T01:07:29.420Z,34.58
2023-02-01T01:10:33.602Z,19.05
2023-02-01T01:13:36.979Z,32.07
2023-02-01T01:16:40.078Z,38.88
2023-02-01T01:19:42.877Z,27.92
2023-02-01T01:22:45.665Z,54.75
2023-02-01T01:25:48.725Z,70.35
2023-02-01T01:28:52.164Z,50.30
2023-02-01T01:31:55.371Z,34.42
2023-02-01T01:34:58.210Z,26.30
2023-02-01T01:38:01.851Z,17.17
2023-02-01T01:41:05.214Z,13.75
2023-02-01T01:44:46.564Z,18.67
2023-02-01T01:47:56.571Z,17.55
2023-02-01T01:51:08.018Z,14.60
2023-02-01T01:54:25.750Z,12.23
2023-02-01T01:57:36.830Z,11.25
2023-02-01T02:00:40.496Z,10.40
2023-02-01T02:03:48.826Z,13.32
2023-02-01T02:06:58.658Z,12.25
2023-02-01T02:10:03.132Z,13.35
2023-02-01T02:13:05.981Z,10.80
2023-02-01T02:16:32.946Z,11.67
2023-02-01T02:19:45.017Z,10.48
2023-02-01T02:23:03.675Z,18.35
2023-02-01T02:26:11.521Z,18.95
2023-02-01T02:29:24.683Z,13.27
2023-02-01T02:33:04.971Z,15.57
2023-02-01T02:36:21.384Z,27.77
2023-02-01T02:40:00.864Z,28.98
2023-02-01T02:43:42.173Z,28.05
2023-02-01T02:47:08.623Z,26.67
2023-02-01T02:50:35.348Z,25.87
2023-02-01T02:54:08.399Z,15.27
2023-02-01T02:57:42.394Z,21.65
2023-02-01T03:01:04.783Z,15.60
2023-02-01T03:04:13.071Z,14.20
2023-02-01T03:07:47.885Z,12.40
2023-02-01T03:11:10.618Z,20.90
2023-02-01T03:14:16.657Z,11.23
2023-02-01T03:17:27.204Z,9.75
2023-02-01T03:20:31.471Z,9.68
2023-02-01T03:23:38.283Z,10.10
2023-02-01T03:26:50.416Z,8.43
2023-02-01T03:30:07.350Z,11.20
2023-02-01T03:33:24.251Z,9.65
2023-02-01T03:36:32.744Z,7.78
2023-02-01T03:39:41.787Z,7.13
2023-02-01T03:42:55.513Z,5.53
2023-02-01T03:46:05.328Z,8.55
2023-02-01T03:49:11.731Z,10.32
2023-02-01T03:52:22.279Z,8.13
2023-02-01T03:55:28.516Z,8.93
2023-02-01T03:58:31.367Z,8.13
2023-02-01T04:01:34.335Z,8.50
2023-02-01T04:04:37.712Z,8.40
2023-02-01T04:07:41.133Z,10.73
2023-02-01T04:10:45.131Z,8.90
2023-02-01T04:13:47.905Z,8.55
2023-02-01T04:16:50.749Z,9.93
2023-02-01T04:19:55.473Z,9.38
2023-02-01T04:22:58.626Z,7.63
2023-02-01T04:26:03.232Z,8.40
2023-02-01T04:29:06.400Z,8.23
2023-02-01T04:32:09.428Z,3.85
2023-02-01T04:35:13.010Z,7.45
2023-02-01T04:38:15.823Z,8.98
2023-02-01T04:41:19.976Z,7.90
2023-02-01T04:44:22.888Z,8.40
2023-02-01T04:47:30.524Z,11.20
2023-02-01T04:50:33.403Z,9.65
2023-02-01T04:53:36.152Z,9.57
2023-02-01T04:56:39.303Z,9.63
2023-02-01T04:59:42.074Z,10.95
2023-02-01T05:02:45.240Z,10.18
2023-02-01T05:05:51.280Z,10.35
2023-02-01T05:08:54.309Z,11.90
2023-02-01T05:12:15.519Z,10.53
2023-02-01T05:15:18.667Z,16.70
2023-02-01T05:18:21.503Z,11.75
2023-02-01T05:21:24.363Z,10.93
2023-02-01T05:24:28.243Z,10.32
2023-02-01T05:27:31.890Z,11.50
2023-02-01T05:30:36.383Z,11.20
2023-02-01T05:33:39.252Z,13.68
2023-02-01T05:36:42.437Z,9.63
2023-02-01T05:39:45.336Z,13.13
2023-02-01T05:42:48.187Z,14.40
2023-02-01T05:45:53.362Z,11.75
2023-02-01T05:48:56.340Z,13.05
2023-02-01T05:52:00.528Z,12.00
2023-02-01T05:55:03.787Z,14.65
2023-02-01T05:58:06.871Z,13.70
2023-02-01T06:01:09.794Z,11.23
2023-02-01T06:04:12.816Z,11.75
2023-02-01T06:07:15.761Z,11.07
2023-02-01T06:10:19.717Z,10.65
2023-02-01T06:13:22.824Z,10.40
2023-02-01T06:16:25.806Z,15.48
2023-02-01T06:19:28.571Z,13.48
2023-02-01T06:22:31.381Z,21.35
2023-02-01T06:25:34.205Z,28.88
2023-02-01T06:28:37.118Z,31.40
2023-02-01T06:31:40.206Z,33.17
2023-02-01T06:34:43.090Z,31.83
2023-02-01T06:37:46.523Z,24.58
2023-02-01T06:40:56.720Z,29.35
2023-02-01T06:43:59.743Z,42.60
2023-02-01T06:47:04.054Z,37.17
2023-02-01T06:50:08.905Z,35.42
2023-02-01T06:53:11.801Z,36.05
2023-02-01T06:56:14.530Z,30.88
2023-02-01T06:59:17.525Z,36.37
2023-02-01T07:02:20.791Z,39.60
2023-02-01T07:05:23.797Z,41.55
2023-02-01T07:08:29.547Z,36.63
2023-02-01T07:11:33.140Z,35.15
2023-02-01T07:14:36.246Z,30.73
2023-02-01T07:17:39.110Z,30.73
2023-02-01T07:20:42.422Z,24.13
2023-02-01T07:23:45.258Z,26.83
2023-02-01T07:26:49.187Z,20.17
2023-02-01T07:29:52.385Z,15.93
2023-02-01T07:32:55.404Z,19.17
2023-02-01T07:35:58.441Z,20.58
2023-02-01T07:39:01.616Z,26.55
2023-02-01T07:42:04.466Z,25.95
2023-02-01T07:45:20.343Z,24.47
2023-02-01T07:48:25.773Z,25.48
2023-02-01T07:51:28.587Z,39.40
2023-02-01T07:54:31.400Z,31.55
2023-02-01T07:57:34.144Z,27.42
2023-02-01T08:00:57.239Z,22.03
2023-02-01T08:04:04.177Z,28.60
2023-02-01T08:07:06.891Z,37.60
2023-02-01T08:10:12.313Z,44.10
2023-02-01T08:13:15.469Z,50.65
2023-02-01T08:16:20.134Z,47.30
2023-02-01T08:19:22.938Z,29.17
2023-02-01T08:22:25.728Z,25.20
2023-02-01T08:25:29.468Z,24.85
2023-02-01T08:28:33.121Z,26.48
2023-02-01T08:31:36.271Z,23.00
2023-02-01T08:34:39.123Z,23.83
2023-02-01T08:37:42.011Z,19.13
2023-02-01T08:40:45.159Z,21.10
2023-02-01T08:43:49.141Z,24.38
2023-02-01T08:46:52.162Z,19.23
2023-02-01T08:49:55.361Z,20.58
2023-02-01T08:52:58.377Z,21.48
2023-02-01T08:56:02.024Z,26.50
2023-02-01T08:59:04.945Z,24.50
2023-02-01T09:02:15.461Z,26.10
2023-02-01T09:05:20.546Z,29.02
2023-02-01T09:08:23.443Z,22.27
2023-02-01T09:11:26.963Z,22.30
2023-02-01T09:14:30.263Z,31.85
2023-02-01T09:17:33.054Z,26.53
2023-02-01T09:20:38.286Z,30.70
2023-02-01T09:23:41.305Z,31.58
2023-02-01T09:26:44.265Z,39.22
2023-02-01T09:29:51.126Z,31.65
2023-02-01T09:32:53.994Z,20.10
2023-02-01T09:36:01.784Z,21.52
2023-02-01T09:39:04.976Z,24.42
2023-02-01T09:42:36.874Z,24.23
2023-02-01T09:45:58.250Z,29.15
2023-02-01T09:49:28.150Z,27.77
2023-02-01T09:52:47.156Z,22.90
2023-02-01T09:55:52.918Z,20.33
2023-02-01T09:59:28.519Z,20.52
2023-02-01T10:02:33.547Z,23.45
2023-02-01T10:06:14.697Z,30.27
2023-02-01T10:09:35.793Z,18.60
2023-02-01T10:13:03.021Z,23.27
2023-02-01T10:16:14.235Z,26.25
2023-02-01T10:19:45.129Z,30.63
2023-02-01T10:23:23.125Z,24.67
2023-02-01T10:26:34.480Z,17.02
2023-02-01T10:29:41.127Z,15.50
2023-02-01T10:32:44.228Z,16.48
2023-02-01T10:35:51.112Z,14.60
2023-02-01T10:38:55.076Z,15.07
2023-02-01T10:41:58.204Z,14.60
2023-02-01T10:45:05.056Z,10.25
2023-02-01T10:48:12.995Z,12.63
2023-02-01T10:51:24.893Z,12.07
2023-02-01T10:54:41.749Z,14.80
2023-02-01T10:57:57.788Z,14.38
2023-02-01T11:01:19.740Z,17.33
2023-02-01T11:04:27.639Z,15.32
2023-02-01T11:07:31.462Z,15.07
2023-02-01T11:10:42.439Z,15.77
2023-02-01T11:13:45.567Z,15.13
2023-02-01T11:16:51.455Z,14.35
2023-02-01T11:20:21.632Z,11.23
2023-02-01T11:23:27.457Z,12.43
2023-02-01T11:26:30.692Z,15.83
2023-02-01T11:29:40.828Z,11.52
2023-02-01T11:32:43.707Z,14.55
2023-02-01T11:35:49.264Z,13.15
2023-02-01T11:39:12.511Z,13.70
2023-02-01T11:42:19.164Z,14.00
2023-02-01T11:45:36.053Z,16.00
2023-02-01T11:48:38.936Z,16.77
2023-02-01T11:52:06.408Z,12.23
2023-02-01T11:55:33.657Z,14.77
2023-02-01T11:58:52.264Z,10.83
2023-02-01T12:02:04.362Z,12.55
2023-02-01T12:05:47.534Z,14.85
2023-02-01T12:08:53.613Z,15.15
2023-02-01T12:12:30.348Z,15.52
2023-02-01T12:15:48.832Z,15.30
2023-02-01T12:18:58.453Z,18.48
2023-02-01T12:22:25.272Z,20.10
2023-02-01T12:25:58.332Z,26.30
2023-02-01T12:29:24.794Z,23.65
2023-02-01T12:32:36.465Z,22.80
2023-02-01T12:35:57.431Z,18.08
2023-02-01T12:39:27.932Z,16.35
2023-02-01T12:42:39.965Z,17.38
2023-02-01T12:45:57.269Z,22.60
2023-02-01T12:49:18.459Z,21.10
2023-02-01T12:52:28.640Z,19.90
2023-02-01T12:55:40.252Z,22.83
2023-02-01T12:58:51.040Z,20.80
2023-02-01T13:02:00.061Z,18.23
2023-02-01T13:05:14.564Z,16.47
2023-02-01T13:08:42.833Z,20.80
2023-02-01T13:11:48.303Z,21.73
2023-02-01T13:14:57.708Z,21.55
2023-02-01T13:18:06.069Z,23.73
2023-02-01T13:21:19.690Z,19.80
2023-02-01T13:24:27.287Z,19.13
2023-02-01T13:27:32.183Z,17.15
2023-02-01T13:30:53.142Z,21.70
2023-02-01T13:34:17.842Z,19.42
2023-02-01T13:37:35.888Z,13.67
2023-02-01T13:41:09.428Z,14.98
2023-02-01T13:44:20.607Z,22.58
2023-02-01T13:47:44.998Z,21.33
2023-02-01T13:50:53.213Z,25.80
2023-02-01T13:53:56.009Z,24.47
2023-02-01T13:57:01.310Z,33.97
2023-02-01T14:00:24.844Z,28.27
2023-02-01T14:03:48.048Z,26.77
2023-02-01T14:06:54.239Z,32.00
2023-02-01T14:09:57.024Z,35.30
2023-02-01T14:13:13.534Z,37.42
2023-02-01T14:16:18.045Z,41.15
2023-02-01T14:19:30.087Z,37.50
2023-02-01T14:22:35.514Z,41.45
2023-02-01T14:25:38.993Z,43.80
2023-02-01T14:28:55.362Z,49.90
2023-02-01T14:32:13.677Z,37.53
2023-02-01T14:35:23.330Z,33.90
2023-02-01T14:38:26.285Z,34.92
2023-02-01T14:41:33.772Z,38.40
2023-02-01T14:44:38.219Z,38.75
2023-02-01T14:47:41.889Z,39.60
2023-02-01T14:50:48.564Z,43.75
2023-02-01T14:53:52.304Z,34.42
2023-02-01T14:56:55.867Z,31.83
2023-02-01T15:00:21.664Z,30.70
2023-02-01T15:03:27.580Z,32.63
2023-02-01T15:06:50.104Z,33.90
2023-02-01T15:09:58.149Z,45.40
2023-02-01T15:13:02.346Z,26.07
2023-02-01T15:16:13.447Z,18.30
2023-02-01T15:19:16.272Z,16.15
2023-02-01T15:22:20.354Z,14.27
2023-02-01T15:25:26.776Z,18.73
2023-02-01T15:28:30.004Z,17.90
2023-02-01T15:31:48.244Z,13.38
2023-02-01T15:34:51.385Z,13.27
2023-02-01T15:37:54.243Z,12.05
2023-02-01T15:41:06.806Z,13.43
2023-02-01T15:44:25.033Z,12.13
2023-02-01T15:47:31.873Z,15.35
2023-02-01T15:50:34.765Z,12.30
2023-02-01T15:53:37.549Z,15.75
2023-02-01T15:56:43.130Z,14.57
2023-02-01T15:59:46.566Z,13.17
2023-02-01T16:03:00.627Z,13.18
2023-02-01T16:06:09.983Z,14.60
2023-02-01T16:09:15.219Z,12.32
2023-02-01T16:12:44.209Z,14.65
2023-02-01T16:15:47.899Z,12.47
2023-02-01T16:18:51.101Z,12.30
2023-02-01T16:21:53.897Z,13.60
2023-02-01T16:24:56.914Z,13.07
2023-02-01T16:27:59.747Z,14.52
2023-02-01T16:31:03.245Z,14.63
2023-02-01T16:34:07.523Z,12.68
2023-02-01T16:37:14.706Z,15.20
2023-02-01T16:40:19.654Z,12.38
2023-02-01T16:43:24.475Z,13.68
2023-02-01T16:46:33.484Z,17.40
2023-02-01T16:49:36.335Z,18.83
2023-02-01T16:52:40.718Z,61.25
2023-02-01T16:55:44.731Z,85.15
2023-02-01T16:58:48.415Z,108.13
2023-02-01T17:01:51.385Z,82.47
2023-02-01T17:04:54.316Z,76.65
2023-02-01T17:08:05.080Z,73.82
2023-02-01T17:11:08.550Z,69.10
2023-02-01T17:14:17.083Z,72.57
2023-02-01T17:17:36.953Z,63.57
2023-02-01T17:20:42.829Z,84.80
2023-02-01T17:23:46.868Z,93.65
2023-02-01T17:26:51.679Z,129.20
2023-02-01T17:29:57.311Z,169.57
2023-02-01T17:33:10.226Z,158.20
2023-02-01T17:36:20.075Z,193.95
2023-02-01T17:39:41.952Z,197.75
2023-02-01T17:42:45.224Z,196.93
2023-02-01T17:46:01.379Z,207.75
2023-02-01T17:49:05.872Z,234.13
2023-02-01T17:52:17.228Z,215.10
2023-02-01T17:55:23.694Z,140.77
2023-02-01T17:58:26.956Z,123.38
2023-02-01T18:01:29.997Z,188.40
2023-02-01T18:04:32.975Z,191.10
2023-02-01T18:07:39.190Z,218.32
2023-02-01T18:10:42.436Z,183.10
2023-02-01T18:13:47.205Z,180.75
2023-02-01T18:16:50.241Z,148.95
2023-02-01T18:19:54.314Z,141.30
2023-02-01T18:22:57.597Z,129.38
2023-02-01T18:26:01.384Z,154.55
2023-02-01T18:29:04.418Z,132.07
2023-02-01T18:32:10.005Z,103.63
2023-02-01T18:35:22.927Z,55.00
2023-02-01T18:38:26.250Z,48.15
2023-02-01T18:41:29.419Z,46.53
2023-02-01T18:44:32.569Z,46.72
2023-02-01T18:47:35.644Z,47.15
2023-02-01T18:50:41.003Z,40.13
2023-02-01T18:53:44.596Z,42.15
2023-02-01T18:56:48.670Z,46.70
2023-02-01T18:59:51.550Z,44.60
2023-02-01T19:02:54.948Z,48.70
2023-02-01T19:05:58.247Z,43.20
2023-02-01T19:09:01.359Z,36.72
2023-02-01T19:12:05.175Z,43.00
2023-02-01T19:15:13.025Z,39.25
2023-02-01T19:18:20.334Z,40.50
2023-02-01T19:21:23.494Z,41.00
2023-02-01T19:24:28.196Z,44.95
2023-02-01T19:27:31.015Z,43.60
2023-02-01T19:30:34.087Z,36.22
2023-02-01T19:33:37.308Z,36.35
2023-02-01T19:36:43.663Z,37.47
2023-02-01T19:39:46.662Z,40.92
2023-02-01T19:42:52.424Z,33.33
2023-02-01T19:45:57.626Z,27.20
2023-02-01T19:49:00.796Z,26.80
2023-02-01T19:52:04.522Z,31.73
2023-02-01T19:55:07.617Z,31.20
2023-02-01T19:58:10.670Z,39.60
2023-02-01T20:01:13.424Z,39.38
2023-02-01T20:04:17.439Z,44.08
2023-02-01T20:07:20.958Z,41.00
2023-02-01T20:10:24.578Z,36.10
2023-02-01T20:13:27.717Z,39.08
2023-02-01T20:16:30.921Z,38.30
2023-02-01T20:19:34.493Z,43.58
2023-02-01T20:22:37.670Z,40.37
2023-02-01T20:25:41.584Z,46.25
2023-02-01T20:28:44.783Z,53.83
2023-02-01T20:31:47.820Z,44.47
2023-02-01T20:34:53.479Z,41.72
2023-02-01T20:38:02.005Z,44.70
2023-02-01T20:41:08.019Z,75.50
2023-02-01T20:44:11.441Z,87.70
2023-02-01T20:47:14.530Z,95.10
2023-02-01T20:50:17.941Z,82.45
2023-02-01T20:53:26.601Z,64.13
2023-02-01T20:56:30.226Z,45.65
2023-02-01T20:59:33.485Z,40.88
2023-02-01T21:02:36.764Z,51.38
2023-02-01T21:05:42.885Z,62.58
2023-02-01T21:08:45.863Z,52.50
2023-02-01T21:11:48.695Z,52.95
2023-02-01T21:14:51.793Z,36.17
2023-02-01T21:17:54.923Z,23.83
2023-02-01T21:20:58.344Z,25.50
2023-02-01T21:24:01.278Z,27.30
2023-02-01T21:27:04.624Z,24.45
2023-02-01T21:30:07.954Z,20.13
2023-02-01T21:33:10.803Z,23.27
2023-02-01T21:36:19.806Z,24.08
2023-02-01T21:39:22.603Z,22.67
2023-02-01T21:42:26.739Z,25.65
2023-02-01T21:45:29.569Z,24.80
2023-02-01T21:49:04.948Z,24.88
2023-02-01T21:51:55.736Z,22.88
2023-02-01T21:54:59.884Z,20.47
2023-02-01T21:58:02.715Z,19.48
2023-02-01T22:01:05.543Z,21.73
2023-02-01T22:04:10.331Z,20.63
2023-02-01T22:07:13.156Z,17.88
2023-02-01T22:10:16.036Z,21.83
2023-02-01T22:13:18.925Z,19.35
2023-02-01T22:16:22.527Z,22.50
2023-02-01T22:19:25.427Z,19.20
2023-02-01T22:22:28.238Z,22.77
2023-02-01T22:25:32.031Z,30.00
2023-02-01T22:28:39.618Z,24.27
2023-02-01T22:31:43.819Z,22.52
2023-02-01T22:34:46.761Z,19.10
2023-02-01T22:37:49.489Z,23.27
2023-02-01T22:41:00.760Z,23.97
2023-02-01T22:44:03.509Z,20.25
2023-02-01T22:47:06.357Z,22.52
2023-02-01T22:50:09.671Z,21.30
2023-02-01T22:53:13.081Z,26.33
2023-02-01T22:56:17.229Z,20.30
2023-02-01T22:59:20.097Z,23.38
2023-02-01T23:02:22.965Z,25.20
2023-02-01T23:05:26.706Z,23.38
2023-02-01T23:08:29.665Z,40.25
2023-02-01T23:11:32.679Z,27.57
2023-02-01T23:14:57.566Z,26.88
2023-02-01T23:18:00.299Z,31.38
2023-02-01T23:21:11.683Z,38.20
2023-02-01T23:24:14.444Z,42.42
2023-02-01T23:27:17.293Z,30.90
2023-02-01T23:30:20.221Z,32.38
2023-02-01T23:33:27.740Z,24.17
2023-02-01T23:36:32.907Z,21.48
2023-02-01T23:39:35.898Z,29.08
2023-02-01T23:42:39.378Z,29.13
2023-02-01T23:45:42.105Z,22.70
2023-02-01T23:48:46.249Z,24.60
2023-02-01T23:51:53.019Z,27.23
2023-02-01T23:54:55.796Z,26.83
2023-02-01T23:57:58.519Z,25.40
